• Join FlightAware (Why Join?)
  • Login
  • US Flag 
01:29PM EDT


 

Airport Tracker/Info


-or-


 

Live Flight TrackerFlight Track Log ✈ DAL6055 ✈ 05-Apr-2013 ✈ KDTW - KSDF

Flight Track Log - Related Links

Times and Time Zones

All times are in EDT time to prevent confusion due to time zone crossing. See the DAL6055 flight status page for this flight to view local times or setup timezone preferences in your user account.

Time Position Orientation Groundspeed Altitude Reporting Facility
EDT Latitude Longitude Course Direction KTS MPH feet Rate Location/Type
09:01AM 42.2328 -83.3281 55° Northeast 153 176 1,600  Level FAA TRACON SMA TRACON (SMA)
09:01AM 42.2408 -83.3125 55° Northeast 166 191 2,200 1,920 Climbing FAA TRACON SMA TRACON (SMA)
09:02AM 42.2525 -83.2922 52° Northeast 190 219 2,900 2,100 Climbing FAA TRACON SMA TRACON (SMA)
09:02AM 42.2644 -83.2711 53° Northeast 200 230 3,600 1,800 Climbing FAA TRACON SMA TRACON (SMA)
09:02AM 42.2753 -83.2528 51° Northeast 220 253 4,100 1,680 Climbing FAA TRACON SMA TRACON (SMA)
09:03AM 42.2897 -83.2278 52° Northeast 240 276 4,700 1,680 Climbing FAA TRACON SMA TRACON (SMA)
09:03AM 42.2997 -83.2031 61° Northeast 250 288 5,200 1,800 Climbing FAA TRACON SMA TRACON (SMA)
09:03AM 42.2944 -83.1731 103° East 279 321 5,900 2,400 Climbing FAA TRACON SMA TRACON (SMA)
09:04AM 42.2747 -83.1422 131° Southeast 281 323 6,800 2,400 Climbing FAA TRACON SMA TRACON (SMA)
09:04AM 42.2575 -83.1181 134° Southeast 288 331 7,500 1,920 Climbing FAA TRACON SMA TRACON (SMA)
09:04AM 42.2389 -83.0944 137° Southeast 297 342 8,100 2,340 Climbing FAA TRACON SMA TRACON (SMA)
09:05AM 42.2092 -83.0878 171° South 278 320 9,100 2,340 Climbing FAA TRACON SMA TRACON (SMA)
09:05AM 42.1853 -83.0925 188° South 285 328 9,700 1,920 Climbing FAA TRACON SMA TRACON (SMA)
09:05AM 42.1608 -83.0981 190° South 287 330 10,400 1,920 Climbing FAA TRACON SMA TRACON (SMA)
09:06AM 42.1319 -83.1136 202° Southwest 305 351 11,000 1,320 Climbing FAA TRACON SMA TRACON (SMA)
09:06AM 42.1092 -83.1244 199° South 304 350 11,300 1,020 Climbing FAA TRACON SMA TRACON (SMA)
09:06AM 42.0772 -83.1403 200° South 317 365 11,700 1,200 Climbing FAA TRACON SMA TRACON (SMA)
09:07AM 42.0506 -83.1536 200° South 328 377 12,100 1,020 Climbing FAA TRACON SMA TRACON (SMA)
09:07AM 42.0231 -83.1672 200° South 338 389 12,400 1,020 Climbing FAA TRACON SMA TRACON (SMA)
09:07AM 41.9878 -83.1850 201° Southwest 348 400 12,800 1,320 Climbing FAA TRACON SMA TRACON (SMA)
09:08AM 41.9594 -83.1989 200° South 351 404 13,300 1,620 Climbing FAA TRACON SMA TRACON (SMA)
09:08AM 41.9308 -83.2133 201° Southwest 353 406 13,900 1,500 Climbing FAA TRACON SMA TRACON (SMA)
09:08AM 41.9022 -83.2272 200° South 352 405 14,300 1,380 Climbing FAA TRACON SMA TRACON (SMA)
09:09AM 41.8667 -83.2453 201° Southwest 355 409 14,800 1,320 Climbing FAA TRACON SMA TRACON (SMA)
09:09AM 41.8375 -83.2597 200° South 358 412 15,200 1,320 Climbing FAA TRACON SMA TRACON (SMA)
09:09AM 41.8083 -83.2744 201° Southwest 361 415 15,700 1,500 Climbing FAA TRACON SMA TRACON (SMA)
09:10AM 41.7717 -83.2925 200° South 362 417 16,200 1,260 Climbing FAA TRACON SMA TRACON (SMA)
09:10AM 41.7425 -83.3067 200° South 362 417 16,600 1,140 Climbing FAA TRACON SMA TRACON (SMA)
09:10AM 41.7133 -83.3208 200° South 363 418 17,000 1,020 Climbing FAA TRACON SMA TRACON (SMA)
09:11AM 41.6756 -83.3364 197° South 374 430 17,300 900 Climbing FAA TRACON SMA TRACON (SMA)
09:11AM 41.6425 -83.3394 184° South 388 447 17,600 720 Climbing FAA TRACON SMA TRACON (SMA)
09:11AM 41.6086 -83.3381 178° South 396 456 17,800 720 Climbing FAA TRACON SMA TRACON (SMA)
09:12AM 41.5658 -83.3369 179° South 398 458 18,100 900 Climbing FAA TRACON SMA TRACON (SMA)
09:12AM 41.5314 -83.3375 181° South 398 458 18,400 1,020 Climbing FAA TRACON SMA TRACON (SMA)
09:12AM 41.4997 -83.3511 198° South 386 444 18,800 1,200 Climbing FAA TRACON SMA TRACON (SMA)
09:13AM 41.4622 -83.3714 202° Southwest 381 438 19,200 1,020 Climbing FAA TRACON SMA TRACON (SMA)
09:13AM 41.4317 -83.3892 204° Southwest 383 441 19,500 1,200 Climbing FAA TRACON SMA TRACON (SMA)
09:13AM 41.3939 -83.4111 204° Southwest 385 443 20,000 1,200 Climbing FAA TRACON SMA TRACON (SMA)
09:14AM 41.3636 -83.4286 203° Southwest 386 444 20,300 900 Climbing FAA TRACON SMA TRACON (SMA)
09:14AM 41.3328 -83.4469 204° Southwest 389 448 20,600 300 Climbing FAA TRACON SMA TRACON (SMA)
09:15AM 41.3328 -83.4469 236° Southwest 389 448 20,600 900 Level FAA TRACON SMA TRACON (SMA)
09:16AM 41.1797 -83.5353 203° Southwest 401 461 22,000 1,440 Climbing Cleveland Center
09:17AM 40.9939 -83.6431 204° Southwest 401 461 24,500 1,260 Climbing Indianapolis Center
09:18AM 40.8933 -83.7019 204° Southwest 394 453 25,700 720 Climbing Indianapolis Center
09:19AM 40.7894 -83.7594 203° Southwest 399 459 26,000 120 Climbing Indianapolis Center
09:20AM 40.6806 -83.8222 204° Southwest 417 480 26,000  Level Indianapolis Center
09:21AM 40.5669 -83.8853 203° Southwest 434 499 26,000  Level Indianapolis Center
09:23AM 40.4553 -83.9492 204° Southwest 435 501 26,000  Level Indianapolis Center
09:24AM 40.3444 -84.0119 203° Southwest 433 498 26,000  Level Indianapolis Center
09:25AM 40.2158 -84.0819 203° Southwest 428 493 26,000  Level Indianapolis Center
09:26AM 40.1014 -84.1425 202° Southwest 438 504 26,000  Level Indianapolis Center
09:27AM 39.9844 -84.2039 202° Southwest 450 518 26,000  Level Indianapolis Center
09:28AM 39.8650 -84.2658 202° Southwest 458 527 26,000  Level Indianapolis Center
09:29AM 39.7458 -84.3283 202° Southwest 459 528 26,000  Level Indianapolis Center
09:30AM 39.6247 -84.3908 202° Southwest 463 533 26,000  Level Indianapolis Center
09:31AM 39.4850 -84.4639 202° Southwest 461 531 26,000 -240 Level Indianapolis Center
09:32AM 39.3639 -84.5264 202° Southwest 466 536 25,600 -840 Descending Indianapolis Center
09:33AM 39.2436 -84.5864 201° Southwest 461 531 24,300 -1,440 Descending Indianapolis Center
09:34AM 39.1256 -84.6469 202° Southwest 454 522 22,700 -1,980 Descending Indianapolis Center
09:35AM 39.0144 -84.7072 203° Southwest 436 502 20,300 -2,580 Descending Indianapolis Center
09:36AM 38.9167 -84.8000 216° Southwest 389 448 17,700 -2,400 Descending Cincinnati TRACON
09:37AM 38.8283 -84.8858 217° Southwest 386 444 15,400 -2,100 Descending Indianapolis Center
09:38AM 38.7422 -84.9692 217° Southwest 383 441 13,200 -1,740 Descending Indianapolis Center
09:39AM 38.6564 -85.0514 217° Southwest 381 438 11,900 -660 Descending Indianapolis Center
09:40AM 38.5622 -85.1406 217° Southwest 383 441 11,900 -60 Level Indianapolis Center
09:41AM 38.4764 -85.2233 217° Southwest 380 437 11,800 -360 Descending Indianapolis Center
09:42AM 38.4297 -85.2675 217° Southwest 377 434 11,400 -900 Descending FAA TRACON SMA TRACON (SMA)
09:42AM 38.3969 -85.2975 216° Southwest 378 435 11,000 -1,080 Descending FAA TRACON SMA TRACON (SMA)
09:42AM 38.3714 -85.3228 218° Southwest 378 435 10,700 -900 Descending FAA TRACON SMA TRACON (SMA)
09:43AM 38.3458 -85.3464 216° Southwest 373 429 10,400 -900 Descending FAA TRACON SMA TRACON (SMA)
09:43AM 38.3167 -85.3744 217° Southwest 351 404 10,100 -600 Descending FAA TRACON SMA TRACON (SMA)
09:43AM 38.2944 -85.3944 215° Southwest 329 379 10,000 -660 Descending FAA TRACON SMA TRACON (SMA)
09:44AM 38.2742 -85.4136 217° Southwest 306 352 9,700 -1,500 Descending FAA TRACON SMA TRACON (SMA)
09:44AM 38.2492 -85.4369 216° Southwest 288 331 9,000 -1,800 Descending FAA TRACON SMA TRACON (SMA)
09:44AM 38.2297 -85.4561 218° Southwest 285 328 8,500 -1,620 Descending FAA TRACON SMA TRACON (SMA)
09:45AM 38.2008 -85.4831 216° Southwest 281 323 7,700 -1,860 Descending FAA TRACON SMA TRACON (SMA)
09:45AM 38.1767 -85.5061 217° Southwest 280 322 7,000 -1,800 Descending FAA TRACON SMA TRACON (SMA)
09:46AM 38.1486 -85.5328 217° Southwest 272 313 6,200 -1,800 Descending FAA TRACON SMA TRACON (SMA)
09:46AM 38.1272 -85.5575 222° Southwest 270 311 5,500 -1,980 Descending FAA TRACON SMA TRACON (SMA)
09:46AM 38.1108 -85.5772 223° Southwest 267 307 4,900 -1,680 Descending FAA TRACON SMA TRACON (SMA)
09:47AM 38.0944 -85.5975 224° Southwest 265 305 4,400 -1,320 Descending FAA TRACON SMA TRACON (SMA)
09:47AM 38.0753 -85.6211 224° Southwest 254 292 4,000 -1,200 Descending FAA TRACON SMA TRACON (SMA)
09:47AM 38.0611 -85.6403 227° Southwest 244 281 3,600 -1,080 Descending FAA TRACON SMA TRACON (SMA)
09:48AM 38.0533 -85.6625 246° West 233 268 3,300 -1,200 Descending FAA TRACON SMA TRACON (SMA)
09:48AM 38.0600 -85.6864 290° West 210 242 2,800 -1,380 Descending FAA TRACON SMA TRACON (SMA)
09:48AM 38.0733 -85.6925 340° North 184 212 2,400 -900 Descending FAA TRACON SMA TRACON (SMA)
09:49AM 38.0850 -85.6961 346° North 150 173 2,200 -780 Descending FAA TRACON SMA TRACON (SMA)
09:49AM 38.0981 -85.7006 345° North 125 144 1,900 -780 Descending FAA TRACON SMA TRACON (SMA)
09:49AM 38.1083 -85.7044 343° North 123 142 1,700 -600 Descending FAA TRACON SMA TRACON (SMA)
09:50AM 38.1186 -85.7075 347° North 122 140 1,500 -720 Descending FAA TRACON SMA TRACON (SMA)
09:50AM 38.1308 -85.7117 345° North 120 138 1,200 -960 Descending FAA TRACON SMA TRACON (SMA)
09:50AM 38.1436 -85.7167 343° North 122 140 900 -780 Descending FAA TRACON SMA TRACON (SMA)
09:51AM 38.1544 -85.7200 346° North 127 146 700 -540 Descending FAA TRACON SMA TRACON (SMA)
09:51AM 38.1619 -85.7228 344° North 127 146 600 -360 Descending FAA TRACON SMA TRACON (SMA)